AirNav   Pilot Hours Calculator
 
 1148 users online  

21NC Isbell Heliport
Hertford, North Carolina, USA

GOING TO HERTFORD?


FAA INFORMATION EFFECTIVE 16 JUNE 2022

Location

FAA Identifier: 21NC
Lat/Long: 36-11-12.0000N 076-16-46.0000W
36-11.200000N 076-16.766667W
36.1866667,-76.2794444
(estimated)
Elevation: 12 ft. / 4 m (estimated)
From city: 20 miles SW of HERTFORD, NC
Time zone: UTC -4 (UTC -5 during Standard Time)
Zip code: 27944

Heliport Operations

Heliport use: Private use. Permission required prior to landing
Activation date: 06/2005
Control tower: no
ARTCC: WASHINGTON CENTER
FSS: RALEIGH FLIGHT SERVICE STATION
Attendance: UNATNDD
Wind indicator: yes
Segmented circle: no

Heliport Communications

WX ASOS at ECG (7 nm NE): 124.375 (252-338-4750)
WX AWOS-3 at EDE (17 nm SW): 118.275 (252-482-0757)
WX AWOS-3 at ONX (18 nm NE): 119.775 (252-453-8939)

Nearby radio navigation aids

VOR radial/distance  VOR name  Freq  Var
ECGr237/6.6ELIZABETH CITY VOR/DME112.5007W
CVIr120/30.7COFIELD VORTAC114.6009W
RBXr307/32.5WRIGHT BROTHERS VOR/DME111.6008W

 
NDB name  Hdg/Dist  Freq  Var  ID
WOODVILLE179/4.725410WLLW .-.. .-.. .--
MANTEO309/32.737009WMQI -- --.- ..

Heliport Services

Runway Information

Helipad H1

Dimensions: 50 x 50 ft. / 15 x 15 m
Surface: concrete
Traffic pattern: leftleft

Heliport Ownership and Management from official FAA records

Ownership: Privately-owned
Owner: WILLAIM J. ISBELL
173 ATKINS WAY
HERTFORD, NC 27944
Phone 252-619-0927
Manager: WILLAIM J. ISBELL
173 ATKINS WAY
HERTFORD, NC 27944
Phone 252-619-0927

Additional Remarks

FOR CD CTC NORFOLK APCH AT 757-464-0757.

Instrument Procedures

There are no published instrument procedures at 21NC.

Some nearby airports with instrument procedures:

KECG - Elizabeth City Coast Guard Air Station/Regional Airport (7 nm NE)
KEDE - Northeastern Regional Airport (17 nm SW)
KONX - Currituck County Regional Airport (18 nm NE)
KCPK - Chesapeake Regional Airport (29 nm N)
KFFA - First Flight Airport (31 nm E)
 
Loc | Ops | Rwys | IFR | FBO | Links
Com | Nav | Svcs | Stats | Notes
Area around 21NC (Isbell Heliport)
 
Road maps at: MapQuest Bing Google
 
Aerial photo
No photo
 
Sectional chart

 
Airport distance calculator
Flying to Isbell Heliport? Find the distance to fly.

From to 21NC

Sunrise and sunset
Times for 06-Jul-2022
 Local
(UTC-4)
 Zulu
(UTC)
Morning civil twilight05:2509:25
Sunrise05:5509:55
Sunset20:2500:25
Evening civil twilight20:5500:55

Current date and time
Zulu (UTC)  06-Jul-2022 23:30:02
Local (UTC-4)  06-Jul-2022 19:30:02
 
METAR
KECG 
7nm NE 
062254Z 20007KT 10SM CLR 32/24 A2989 RMK AO2 SLP120 T03170239
KEDE 
17nm SW 
062315Z AUTO 17005KT 10SM CLR 33/27 A2990 RMK AO2 T03270272
KONX 
18nm NE 
062315Z AUTO 17003KT 10SM CLR 32/19 A2988 RMK AO2 T03180188
TAF
KECG 
7nm NE 
061735Z 0618/0718 VRB06KT P6SM BKN150 FM062200 21007KT P6SM VCTS SCT040CB FM070300 22005KT P6SM VCSH BKN040 BKN070 FM070900 23004KT P6SM SCT010 BKN080
NOTAMs
Click for the latest NOTAMs
NOTAMs are issued by the DoD/FAA and will open in a separate window not controlled by AirNav.

 

 
 

Would you like to see your business listed on this page?

 If your business provides an interesting product or service to pilots, flight crews, aircraft, or users of the Isbell Heliport, you should consider listing it here.  To start the listing process, click on the button below
 
Add a business
 

Other Pages about Isbell Heliport

Update a link
 
Copyright © AirNav, LLC. All rights reserved. Privacy Policy  Contact